sensor_id;sensor_type;location;lat;lon;timestamp;P1;durP1;ratioP1;P2;durP2;ratioP2
16775;SDS011;8505;49.456;8.164;2023-05-14T00:01:09;22.50;;;14.10;;
16775;SDS011;8505;49.456;8.164;2023-05-14T00:03:37;20.77;;;14.27;;
16775;SDS011;8505;49.456;8.164;2023-05-14T00:06:06;18.67;;;13.30;;
16775;SDS011;8505;49.456;8.164;2023-05-14T00:08:34;18.50;;;13.10;;
16775;SDS011;8505;49.456;8.164;2023-05-14T00:11:04;19.10;;;13.20;;
16775;SDS011;8505;49.456;8.164;2023-05-14T00:13:34;17.15;;;12.48;;
16775;SDS011;8505;49.456;8.164;2023-05-14T00:16:02;18.38;;;12.60;;
16775;SDS011;8505;49.456;8.164;2023-05-14T00:18:30;16.23;;;12.80;;
16775;SDS011;8505;49.456;8.164;2023-05-14T00:20:58;16.38;;;12.77;;
16775;SDS011;8505;49.456;8.164;2023-05-14T00:23:26;18.40;;;12.27;;
16775;SDS011;8505;49.456;8.164;2023-05-14T00:25:54;16.77;;;11.80;;
16775;SDS011;8505;49.456;8.164;2023-05-14T00:28:23;15.93;;;11.15;;
16775;SDS011;8505;49.456;8.164;2023-05-14T00:30:51;16.77;;;10.85;;
16775;SDS011;8505;49.456;8.164;2023-05-14T00:33:19;17.23;;;11.82;;
16775;SDS011;8505;49.456;8.164;2023-05-14T00:35:47;18.52;;;12.15;;
16775;SDS011;8505;49.456;8.164;2023-05-14T00:38:15;18.10;;;11.30;;
16775;SDS011;8505;49.456;8.164;2023-05-14T00:40:44;18.83;;;12.13;;
16775;SDS011;8505;49.456;8.164;2023-05-14T00:43:17;16.67;;;11.82;;
16775;SDS011;8505;49.456;8.164;2023-05-14T00:45:47;20.10;;;12.15;;
16775;SDS011;8505;49.456;8.164;2023-05-14T00:48:17;15.90;;;11.43;;
16775;SDS011;8505;49.456;8.164;2023-05-14T00:50:46;16.42;;;11.20;;
16775;SDS011;8505;49.456;8.164;2023-05-14T00:53:15;17.43;;;11.13;;
16775;SDS011;8505;49.456;8.164;2023-05-14T00:55:44;18.58;;;11.60;;
16775;SDS011;8505;49.456;8.164;2023-05-14T00:58:14;15.20;;;11.02;;
16775;SDS011;8505;49.456;8.164;2023-05-14T01:00:44;18.52;;;11.88;;
16775;SDS011;8505;49.456;8.164;2023-05-14T01:03:14;18.10;;;12.03;;
16775;SDS011;8505;49.456;8.164;2023-05-14T01:05:44;15.77;;;11.13;;
16775;SDS011;8505;49.456;8.164;2023-05-14T01:08:29;14.20;;;10.60;;
16775;SDS011;8505;49.456;8.164;2023-05-14T01:11:03;17.13;;;10.77;;
16775;SDS011;8505;49.456;8.164;2023-05-14T01:13:36;18.30;;;11.43;;
16775;SDS011;8505;49.456;8.164;2023-05-14T01:16:11;14.85;;;10.73;;
16775;SDS011;8505;49.456;8.164;2023-05-14T01:18:42;13.73;;;10.60;;
16775;SDS011;8505;49.456;8.164;2023-05-14T01:24:10;15.00;;;10.80;;
16775;SDS011;8505;49.456;8.164;2023-05-14T01:26:37;17.35;;;10.98;;
16775;SDS011;8505;49.456;8.164;2023-05-14T01:29:08;14.55;;;10.52;;
16775;SDS011;8505;49.456;8.164;2023-05-14T01:31:40;17.23;;;11.00;;
16775;SDS011;8505;49.456;8.164;2023-05-14T01:34:10;14.27;;;10.93;;
16775;SDS011;8505;49.456;8.164;2023-05-14T01:36:40;15.55;;;10.80;;
16775;SDS011;8505;49.456;8.164;2023-05-14T01:39:10;18.10;;;11.23;;
16775;SDS011;8505;49.456;8.164;2023-05-14T01:41:40;19.25;;;11.95;;
16775;SDS011;8505;49.456;8.164;2023-05-14T01:44:09;13.88;;;11.05;;
16775;SDS011;8505;49.456;8.164;2023-05-14T01:46:38;15.90;;;10.77;;
16775;SDS011;8505;49.456;8.164;2023-05-14T01:49:06;13.63;;;10.45;;
16775;SDS011;8505;49.456;8.164;2023-05-14T01:51:34;13.80;;;10.30;;
16775;SDS011;8505;49.456;8.164;2023-05-14T01:54:03;14.18;;;10.15;;
16775;SDS011;8505;49.456;8.164;2023-05-14T01:56:31;12.70;;;9.98;;
16775;SDS011;8505;49.456;8.164;2023-05-14T01:58:59;13.27;;;9.63;;
16775;SDS011;8505;49.456;8.164;2023-05-14T02:01:26;12.33;;;9.20;;
16775;SDS011;8505;49.456;8.164;2023-05-14T02:03:55;13.25;;;9.75;;
16775;SDS011;8505;49.456;8.164;2023-05-14T02:06:23;12.55;;;9.30;;
16775;SDS011;8505;49.456;8.164;2023-05-14T02:08:51;13.75;;;9.50;;
16775;SDS011;8505;49.456;8.164;2023-05-14T02:11:20;12.57;;;9.40;;
16775;SDS011;8505;49.456;8.164;2023-05-14T02:13:48;14.52;;;9.88;;
16775;SDS011;8505;49.456;8.164;2023-05-14T02:16:16;13.63;;;9.85;;
16775;SDS011;8505;49.456;8.164;2023-05-14T02:18:44;14.80;;;9.98;;
16775;SDS011;8505;49.456;8.164;2023-05-14T02:21:12;13.65;;;10.00;;
16775;SDS011;8505;49.456;8.164;2023-05-14T02:23:40;14.55;;;9.45;;
16775;SDS011;8505;49.456;8.164;2023-05-14T02:26:08;13.07;;;9.98;;
16775;SDS011;8505;49.456;8.164;2023-05-14T02:28:37;12.65;;;9.82;;
16775;SDS011;8505;49.456;8.164;2023-05-14T02:31:05;13.65;;;10.65;;
16775;SDS011;8505;49.456;8.164;2023-05-14T02:33:33;14.43;;;10.25;;
16775;SDS011;8505;49.456;8.164;2023-05-14T02:36:01;13.82;;;9.90;;
16775;SDS011;8505;49.456;8.164;2023-05-14T02:38:29;12.23;;;10.00;;
16775;SDS011;8505;49.456;8.164;2023-05-14T02:40:57;14.60;;;10.05;;
16775;SDS011;8505;49.456;8.164;2023-05-14T02:43:24;14.50;;;10.67;;
16775;SDS011;8505;49.456;8.164;2023-05-14T02:45:53;14.50;;;10.07;;
16775;SDS011;8505;49.456;8.164;2023-05-14T02:48:21;14.60;;;10.45;;
16775;SDS011;8505;49.456;8.164;2023-05-14T02:50:49;12.43;;;10.07;;
16775;SDS011;8505;49.456;8.164;2023-05-14T02:53:17;12.47;;;9.87;;
16775;SDS011;8505;49.456;8.164;2023-05-14T02:55:45;15.45;;;10.18;;
16775;SDS011;8505;49.456;8.164;2023-05-14T02:58:13;12.90;;;10.00;;
16775;SDS011;8505;49.456;8.164;2023-05-14T03:00:41;13.73;;;10.32;;
16775;SDS011;8505;49.456;8.164;2023-05-14T03:03:11;13.45;;;10.80;;
16775;SDS011;8505;49.456;8.164;2023-05-14T03:05:39;13.38;;;11.00;;
16775;SDS011;8505;49.456;8.164;2023-05-14T03:08:07;14.70;;;10.63;;
16775;SDS011;8505;49.456;8.164;2023-05-14T03:10:34;14.40;;;10.53;;
16775;SDS011;8505;49.456;8.164;2023-05-14T03:13:02;14.02;;;10.50;;
16775;SDS011;8505;49.456;8.164;2023-05-14T03:15:30;11.45;;;9.73;;
16775;SDS011;8505;49.456;8.164;2023-05-14T03:17:58;12.98;;;9.45;;
16775;SDS011;8505;49.456;8.164;2023-05-14T03:20:27;12.02;;;8.90;;
16775;SDS011;8505;49.456;8.164;2023-05-14T03:22:55;12.65;;;8.90;;
16775;SDS011;8505;49.456;8.164;2023-05-14T03:25:23;14.82;;;9.80;;
16775;SDS011;8505;49.456;8.164;2023-05-14T03:27:50;14.13;;;9.83;;
16775;SDS011;8505;49.456;8.164;2023-05-14T03:30:18;13.57;;;9.60;;
16775;SDS011;8505;49.456;8.164;2023-05-14T03:32:46;16.50;;;9.77;;
16775;SDS011;8505;49.456;8.164;2023-05-14T03:35:15;14.45;;;9.77;;
16775;SDS011;8505;49.456;8.164;2023-05-14T03:37:44;16.08;;;9.95;;
16775;SDS011;8505;49.456;8.164;2023-05-14T03:40:12;14.75;;;10.10;;
16775;SDS011;8505;49.456;8.164;2023-05-14T03:42:39;13.73;;;10.43;;
16775;SDS011;8505;49.456;8.164;2023-05-14T03:45:08;14.77;;;10.40;;
16775;SDS011;8505;49.456;8.164;2023-05-14T03:47:36;15.73;;;11.30;;
16775;SDS011;8505;49.456;8.164;2023-05-14T03:50:04;19.55;;;11.18;;
16775;SDS011;8505;49.456;8.164;2023-05-14T03:52:33;16.63;;;11.27;;
16775;SDS011;8505;49.456;8.164;2023-05-14T03:55:03;14.77;;;10.70;;
16775;SDS011;8505;49.456;8.164;2023-05-14T03:57:31;14.30;;;10.27;;
16775;SDS011;8505;49.456;8.164;2023-05-14T03:59:59;15.52;;;9.90;;
16775;SDS011;8505;49.456;8.164;2023-05-14T04:02:27;13.57;;;9.75;;
16775;SDS011;8505;49.456;8.164;2023-05-14T04:04:55;13.95;;;9.52;;
16775;SDS011;8505;49.456;8.164;2023-05-14T04:07:22;12.40;;;9.85;;
16775;SDS011;8505;49.456;8.164;2023-05-14T04:09:50;13.23;;;9.85;;
16775;SDS011;8505;49.456;8.164;2023-05-14T04:12:20;12.63;;;9.65;;
16775;SDS011;8505;49.456;8.164;2023-05-14T04:14:48;13.52;;;9.98;;
16775;SDS011;8505;49.456;8.164;2023-05-14T04:17:15;13.55;;;9.40;;
16775;SDS011;8505;49.456;8.164;2023-05-14T04:19:43;12.10;;;9.63;;
16775;SDS011;8505;49.456;8.164;2023-05-14T04:22:11;12.10;;;9.80;;
16775;SDS011;8505;49.456;8.164;2023-05-14T04:24:39;13.23;;;9.68;;
16775;SDS011;8505;49.456;8.164;2023-05-14T04:27:07;13.07;;;9.73;;
16775;SDS011;8505;49.456;8.164;2023-05-14T04:29:36;12.70;;;8.98;;
16775;SDS011;8505;49.456;8.164;2023-05-14T04:32:04;12.82;;;8.98;;
16775;SDS011;8505;49.456;8.164;2023-05-14T04:34:33;11.83;;;8.50;;
16775;SDS011;8505;49.456;8.164;2023-05-14T04:37:01;10.38;;;7.65;;
16775;SDS011;8505;49.456;8.164;2023-05-14T04:39:29;10.10;;;7.35;;
16775;SDS011;8505;49.456;8.164;2023-05-14T04:41:57;11.02;;;6.70;;
16775;SDS011;8505;49.456;8.164;2023-05-14T04:44:24;9.95;;;7.38;;
16775;SDS011;8505;49.456;8.164;2023-05-14T04:46:54;9.02;;;7.10;;
16775;SDS011;8505;49.456;8.164;2023-05-14T04:49:22;9.20;;;7.30;;
16775;SDS011;8505;49.456;8.164;2023-05-14T04:51:51;10.33;;;7.37;;
16775;SDS011;8505;49.456;8.164;2023-05-14T04:54:18;10.18;;;7.68;;
16775;SDS011;8505;49.456;8.164;2023-05-14T04:56:46;13.43;;;7.32;;
16775;SDS011;8505;49.456;8.164;2023-05-14T04:59:14;9.38;;;7.50;;
16775;SDS011;8505;49.456;8.164;2023-05-14T05:01:42;11.93;;;8.00;;
16775;SDS011;8505;49.456;8.164;2023-05-14T05:04:12;11.52;;;8.30;;
16775;SDS011;8505;49.456;8.164;2023-05-14T05:06:40;11.32;;;8.38;;
16775;SDS011;8505;49.456;8.164;2023-05-14T05:09:08;11.55;;;8.82;;
16775;SDS011;8505;49.456;8.164;2023-05-14T05:11:36;11.07;;;8.63;;
16775;SDS011;8505;49.456;8.164;2023-05-14T05:14:04;11.15;;;8.90;;
16775;SDS011;8505;49.456;8.164;2023-05-14T05:16:32;13.15;;;9.40;;
16775;SDS011;8505;49.456;8.164;2023-05-14T05:19:00;13.55;;;9.68;;
16775;SDS011;8505;49.456;8.164;2023-05-14T05:21:29;12.52;;;9.77;;
16775;SDS011;8505;49.456;8.164;2023-05-14T05:23:57;16.00;;;10.57;;
16775;SDS011;8505;49.456;8.164;2023-05-14T05:26:25;13.80;;;10.00;;
16775;SDS011;8505;49.456;8.164;2023-05-14T05:28:53;12.13;;;9.80;;
16775;SDS011;8505;49.456;8.164;2023-05-14T05:31:21;14.10;;;10.35;;
16775;SDS011;8505;49.456;8.164;2023-05-14T05:33:49;15.48;;;10.50;;
16775;SDS011;8505;49.456;8.164;2023-05-14T05:36:17;13.70;;;10.02;;
16775;SDS011;8505;49.456;8.164;2023-05-14T05:38:46;13.52;;;10.10;;
16775;SDS011;8505;49.456;8.164;2023-05-14T05:41:14;13.25;;;10.35;;
16775;SDS011;8505;49.456;8.164;2023-05-14T05:43:42;15.05;;;10.18;;
16775;SDS011;8505;49.456;8.164;2023-05-14T05:46:10;14.23;;;10.15;;
16775;SDS011;8505;49.456;8.164;2023-05-14T05:48:38;14.30;;;10.40;;
16775;SDS011;8505;49.456;8.164;2023-05-14T05:51:06;15.70;;;10.60;;
16775;SDS011;8505;49.456;8.164;2023-05-14T05:53:34;13.30;;;9.97;;
16775;SDS011;8505;49.456;8.164;2023-05-14T05:56:03;13.13;;;9.80;;
16775;SDS011;8505;49.456;8.164;2023-05-14T05:58:32;12.73;;;9.77;;
16775;SDS011;8505;49.456;8.164;2023-05-14T06:01:00;13.23;;;10.10;;
16775;SDS011;8505;49.456;8.164;2023-05-14T06:03:28;11.30;;;9.17;;
16775;SDS011;8505;49.456;8.164;2023-05-14T06:05:56;12.10;;;9.50;;
16775;SDS011;8505;49.456;8.164;2023-05-14T06:08:24;12.67;;;9.90;;
16775;SDS011;8505;49.456;8.164;2023-05-14T06:10:52;13.63;;;9.75;;
16775;SDS011;8505;49.456;8.164;2023-05-14T06:13:21;12.48;;;9.45;;
16775;SDS011;8505;49.456;8.164;2023-05-14T06:15:49;12.55;;;9.00;;
16775;SDS011;8505;49.456;8.164;2023-05-14T06:18:17;14.48;;;9.27;;
16775;SDS011;8505;49.456;8.164;2023-05-14T06:20:45;13.75;;;9.55;;
16775;SDS011;8505;49.456;8.164;2023-05-14T06:23:13;13.45;;;8.57;;
16775;SDS011;8505;49.456;8.164;2023-05-14T06:25:40;11.18;;;8.43;;
16775;SDS011;8505;49.456;8.164;2023-05-14T06:28:08;11.75;;;9.50;;
16775;SDS011;8505;49.456;8.164;2023-05-14T06:30:37;13.18;;;9.00;;
16775;SDS011;8505;49.456;8.164;2023-05-14T06:33:05;11.68;;;8.63;;
16775;SDS011;8505;49.456;8.164;2023-05-14T06:35:33;11.97;;;8.20;;
16775;SDS011;8505;49.456;8.164;2023-05-14T06:38:02;12.40;;;8.57;;
16775;SDS011;8505;49.456;8.164;2023-05-14T06:40:29;10.40;;;7.40;;
16775;SDS011;8505;49.456;8.164;2023-05-14T06:42:58;12.15;;;7.80;;
16775;SDS011;8505;49.456;8.164;2023-05-14T06:45:26;9.55;;;7.07;;
16775;SDS011;8505;49.456;8.164;2023-05-14T06:47:55;9.70;;;7.40;;
16775;SDS011;8505;49.456;8.164;2023-05-14T06:50:23;10.45;;;7.25;;
16775;SDS011;8505;49.456;8.164;2023-05-14T06:52:51;12.13;;;7.10;;
16775;SDS011;8505;49.456;8.164;2023-05-14T06:55:19;8.43;;;7.15;;
16775;SDS011;8505;49.456;8.164;2023-05-14T06:57:47;10.55;;;6.90;;
16775;SDS011;8505;49.456;8.164;2023-05-14T07:00:16;9.90;;;6.90;;
16775;SDS011;8505;49.456;8.164;2023-05-14T07:02:44;8.95;;;7.10;;
16775;SDS011;8505;49.456;8.164;2023-05-14T07:05:14;10.20;;;6.82;;
16775;SDS011;8505;49.456;8.164;2023-05-14T07:07:42;7.77;;;6.17;;
16775;SDS011;8505;49.456;8.164;2023-05-14T07:10:09;9.60;;;6.38;;
16775;SDS011;8505;49.456;8.164;2023-05-14T07:12:37;8.40;;;6.18;;
16775;SDS011;8505;49.456;8.164;2023-05-14T07:15:06;8.20;;;5.90;;
16775;SDS011;8505;49.456;8.164;2023-05-14T07:17:35;8.15;;;6.55;;
16775;SDS011;8505;49.456;8.164;2023-05-14T07:20:03;7.93;;;6.40;;
16775;SDS011;8505;49.456;8.164;2023-05-14T07:22:33;8.60;;;6.30;;
16775;SDS011;8505;49.456;8.164;2023-05-14T07:25:01;10.75;;;7.10;;
16775;SDS011;8505;49.456;8.164;2023-05-14T07:27:29;9.88;;;6.60;;
16775;SDS011;8505;49.456;8.164;2023-05-14T07:29:57;11.23;;;6.38;;
16775;SDS011;8505;49.456;8.164;2023-05-14T07:32:25;9.20;;;5.97;;
16775;SDS011;8505;49.456;8.164;2023-05-14T07:34:53;7.78;;;5.13;;
16775;SDS011;8505;49.456;8.164;2023-05-14T07:37:21;6.63;;;5.35;;
16775;SDS011;8505;49.456;8.164;2023-05-14T07:39:52;10.60;;;5.10;;
16775;SDS011;8505;49.456;8.164;2023-05-14T07:42:21;8.10;;;5.20;;
16775;SDS011;8505;49.456;8.164;2023-05-14T07:45:01;5.57;;;4.70;;
16775;SDS011;8505;49.456;8.164;2023-05-14T07:47:29;5.93;;;4.40;;
16775;SDS011;8505;49.456;8.164;2023-05-14T07:49:58;6.67;;;4.50;;
16775;SDS011;8505;49.456;8.164;2023-05-14T07:52:26;5.82;;;4.20;;
16775;SDS011;8505;49.456;8.164;2023-05-14T07:54:55;5.25;;;4.50;;
16775;SDS011;8505;49.456;8.164;2023-05-14T07:57:23;6.60;;;4.15;;
16775;SDS011;8505;49.456;8.164;2023-05-14T07:59:51;4.88;;;4.30;;
16775;SDS011;8505;49.456;8.164;2023-05-14T08:02:19;5.83;;;3.90;;
16775;SDS011;8505;49.456;8.164;2023-05-14T08:04:47;5.55;;;4.10;;
16775;SDS011;8505;49.456;8.164;2023-05-14T08:07:15;6.50;;;4.10;;
16775;SDS011;8505;49.456;8.164;2023-05-14T08:09:43;6.40;;;4.10;;
16775;SDS011;8505;49.456;8.164;2023-05-14T08:12:12;5.90;;;4.28;;
16775;SDS011;8505;49.456;8.164;2023-05-14T08:14:41;4.88;;;4.00;;
16775;SDS011;8505;49.456;8.164;2023-05-14T08:17:09;4.80;;;3.90;;
16775;SDS011;8505;49.456;8.164;2023-05-14T08:19:37;5.43;;;4.10;;
16775;SDS011;8505;49.456;8.164;2023-05-14T08:22:05;4.60;;;3.97;;
16775;SDS011;8505;49.456;8.164;2023-05-14T08:24:32;5.80;;;4.05;;
16775;SDS011;8505;49.456;8.164;2023-05-14T08:27:00;4.93;;;3.60;;
16775;SDS011;8505;49.456;8.164;2023-05-14T08:29:30;5.95;;;3.75;;
16775;SDS011;8505;49.456;8.164;2023-05-14T08:31:58;6.22;;;3.70;;
16775;SDS011;8505;49.456;8.164;2023-05-14T08:34:41;4.03;;;3.20;;
16775;SDS011;8505;49.456;8.164;2023-05-14T08:37:09;4.80;;;3.08;;
16775;SDS011;8505;49.456;8.164;2023-05-14T08:39:37;4.55;;;3.45;;
16775;SDS011;8505;49.456;8.164;2023-05-14T08:42:05;3.75;;;3.30;;
16775;SDS011;8505;49.456;8.164;2023-05-14T08:44:37;4.32;;;2.90;;
16775;SDS011;8505;49.456;8.164;2023-05-14T08:47:08;4.72;;;3.20;;
16775;SDS011;8505;49.456;8.164;2023-05-14T08:49:41;6.10;;;3.30;;
16775;SDS011;8505;49.456;8.164;2023-05-14T08:52:10;4.07;;;3.40;;
16775;SDS011;8505;49.456;8.164;2023-05-14T08:54:39;4.07;;;3.30;;
16775;SDS011;8505;49.456;8.164;2023-05-14T08:57:07;4.78;;;3.45;;
16775;SDS011;8505;49.456;8.164;2023-05-14T08:59:38;5.43;;;3.75;;
16775;SDS011;8505;49.456;8.164;2023-05-14T09:02:06;4.72;;;3.20;;
16775;SDS011;8505;49.456;8.164;2023-05-14T09:04:36;5.07;;;3.20;;
16775;SDS011;8505;49.456;8.164;2023-05-14T09:07:05;3.90;;;3.30;;
16775;SDS011;8505;49.456;8.164;2023-05-14T09:09:33;4.25;;;3.20;;
16775;SDS011;8505;49.456;8.164;2023-05-14T09:12:02;4.43;;;3.22;;
16775;SDS011;8505;49.456;8.164;2023-05-14T09:14:31;4.87;;;3.70;;
16775;SDS011;8505;49.456;8.164;2023-05-14T09:17:01;4.25;;;3.70;;
16775;SDS011;8505;49.456;8.164;2023-05-14T09:19:29;5.15;;;3.90;;
16775;SDS011;8505;49.456;8.164;2023-05-14T09:21:57;5.70;;;3.72;;
16775;SDS011;8505;49.456;8.164;2023-05-14T09:24:25;4.07;;;3.58;;
16775;SDS011;8505;49.456;8.164;2023-05-14T09:26:55;5.20;;;3.70;;
16775;SDS011;8505;49.456;8.164;2023-05-14T09:29:25;4.85;;;3.90;;
16775;SDS011;8505;49.456;8.164;2023-05-14T09:31:54;6.13;;;3.97;;
16775;SDS011;8505;49.456;8.164;2023-05-14T09:34:24;6.13;;;4.10;;
16775;SDS011;8505;49.456;8.164;2023-05-14T09:36:54;5.20;;;4.00;;
16775;SDS011;8505;49.456;8.164;2023-05-14T09:39:25;5.07;;;3.90;;
16775;SDS011;8505;49.456;8.164;2023-05-14T09:41:53;5.57;;;4.27;;
16775;SDS011;8505;49.456;8.164;2023-05-14T09:44:22;5.53;;;4.20;;
16775;SDS011;8505;49.456;8.164;2023-05-14T09:46:51;6.15;;;4.10;;
16775;SDS011;8505;49.456;8.164;2023-05-14T09:49:20;6.13;;;4.35;;
16775;SDS011;8505;49.456;8.164;2023-05-14T09:51:51;5.72;;;4.10;;
16775;SDS011;8505;49.456;8.164;2023-05-14T09:54:19;5.90;;;4.32;;
16775;SDS011;8505;49.456;8.164;2023-05-14T09:56:46;6.63;;;4.20;;
16775;SDS011;8505;49.456;8.164;2023-05-14T09:59:14;5.55;;;4.20;;
16775;SDS011;8505;49.456;8.164;2023-05-14T10:01:42;6.32;;;4.50;;
16775;SDS011;8505;49.456;8.164;2023-05-14T10:04:11;5.35;;;4.25;;
16775;SDS011;8505;49.456;8.164;2023-05-14T10:06:40;6.47;;;4.63;;
16775;SDS011;8505;49.456;8.164;2023-05-14T10:09:12;5.63;;;4.50;;
16775;SDS011;8505;49.456;8.164;2023-05-14T10:11:43;6.70;;;4.20;;
16775;SDS011;8505;49.456;8.164;2023-05-14T10:14:19;5.30;;;4.40;;
16775;SDS011;8505;49.456;8.164;2023-05-14T10:16:51;6.07;;;4.40;;
16775;SDS011;8505;49.456;8.164;2023-05-14T10:19:21;5.97;;;4.70;;
16775;SDS011;8505;49.456;8.164;2023-05-14T10:21:52;6.43;;;4.27;;
16775;SDS011;8505;49.456;8.164;2023-05-14T10:24:24;5.00;;;4.15;;
16775;SDS011;8505;49.456;8.164;2023-05-14T10:26:53;5.70;;;3.85;;
16775;SDS011;8505;49.456;8.164;2023-05-14T10:29:23;5.32;;;4.00;;
16775;SDS011;8505;49.456;8.164;2023-05-14T10:32:00;5.20;;;4.10;;
16775;SDS011;8505;49.456;8.164;2023-05-14T10:34:34;4.70;;;4.20;;
16775;SDS011;8505;49.456;8.164;2023-05-14T10:37:04;6.57;;;4.35;;
16775;SDS011;8505;49.456;8.164;2023-05-14T10:39:42;5.90;;;4.20;;
16775;SDS011;8505;49.456;8.164;2023-05-14T10:42:12;5.40;;;3.90;;
16775;SDS011;8505;49.456;8.164;2023-05-14T10:44:47;5.13;;;3.88;;
16775;SDS011;8505;49.456;8.164;2023-05-14T10:47:17;4.07;;;3.60;;
16775;SDS011;8505;49.456;8.164;2023-05-14T10:49:46;5.88;;;3.42;;
16775;SDS011;8505;49.456;8.164;2023-05-14T10:52:18;4.82;;;3.72;;
16775;SDS011;8505;49.456;8.164;2023-05-14T10:54:53;4.72;;;3.78;;
16775;SDS011;8505;49.456;8.164;2023-05-14T10:57:22;5.07;;;3.85;;
16775;SDS011;8505;49.456;8.164;2023-05-14T10:59:52;4.72;;;3.60;;
16775;SDS011;8505;49.456;8.164;2023-05-14T11:02:22;4.70;;;3.60;;
16775;SDS011;8505;49.456;8.164;2023-05-14T11:04:53;5.82;;;3.70;;
16775;SDS011;8505;49.456;8.164;2023-05-14T11:07:29;5.03;;;3.60;;
16775;SDS011;8505;49.456;8.164;2023-05-14T11:10:00;3.50;;;3.20;;
16775;SDS011;8505;49.456;8.164;2023-05-14T11:12:30;3.85;;;3.10;;
16775;SDS011;8505;49.456;8.164;2023-05-14T11:14:59;4.15;;;3.30;;
16775;SDS011;8505;49.456;8.164;2023-05-14T11:17:30;4.60;;;3.40;;
16775;SDS011;8505;49.456;8.164;2023-05-14T11:20:00;3.72;;;3.42;;
16775;SDS011;8505;49.456;8.164;2023-05-14T11:22:30;5.88;;;3.55;;
16775;SDS011;8505;49.456;8.164;2023-05-14T11:25:00;5.20;;;3.87;;
16775;SDS011;8505;49.456;8.164;2023-05-14T11:27:29;5.68;;;3.78;;
16775;SDS011;8505;49.456;8.164;2023-05-14T11:29:57;3.87;;;3.40;;
16775;SDS011;8505;49.456;8.164;2023-05-14T11:32:26;4.65;;;3.75;;
16775;SDS011;8505;49.456;8.164;2023-05-14T11:34:54;4.78;;;4.00;;
16775;SDS011;8505;49.456;8.164;2023-05-14T11:37:22;5.38;;;3.97;;
16775;SDS011;8505;49.456;8.164;2023-05-14T11:39:51;5.83;;;3.57;;
16775;SDS011;8505;49.456;8.164;2023-05-14T11:42:22;3.60;;;3.10;;
16775;SDS011;8505;49.456;8.164;2023-05-14T11:44:51;4.40;;;3.38;;
16775;SDS011;8505;49.456;8.164;2023-05-14T11:47:20;4.95;;;3.50;;
16775;SDS011;8505;49.456;8.164;2023-05-14T11:49:48;5.18;;;3.47;;
16775;SDS011;8505;49.456;8.164;2023-05-14T11:52:16;4.90;;;3.80;;
16775;SDS011;8505;49.456;8.164;2023-05-14T11:54:47;4.28;;;3.88;;
16775;SDS011;8505;49.456;8.164;2023-05-14T11:57:17;4.90;;;3.67;;
16775;SDS011;8505;49.456;8.164;2023-05-14T11:59:47;6.22;;;3.90;;
16775;SDS011;8505;49.456;8.164;2023-05-14T12:02:21;5.60;;;4.15;;
16775;SDS011;8505;49.456;8.164;2023-05-14T12:04:52;5.07;;;3.67;;
16775;SDS011;8505;49.456;8.164;2023-05-14T12:07:21;3.47;;;3.00;;
16775;SDS011;8505;49.456;8.164;2023-05-14T12:09:49;5.75;;;3.20;;
16775;SDS011;8505;49.456;8.164;2023-05-14T12:12:17;5.30;;;3.47;;
16775;SDS011;8505;49.456;8.164;2023-05-14T12:14:48;4.35;;;3.30;;
16775;SDS011;8505;49.456;8.164;2023-05-14T12:17:18;4.65;;;3.08;;
16775;SDS011;8505;49.456;8.164;2023-05-14T12:19:47;3.40;;;2.85;;
16775;SDS011;8505;49.456;8.164;2023-05-14T12:22:17;4.05;;;3.00;;
16775;SDS011;8505;49.456;8.164;2023-05-14T12:24:51;4.78;;;3.10;;
16775;SDS011;8505;49.456;8.164;2023-05-14T12:27:20;3.70;;;2.80;;
16775;SDS011;8505;49.456;8.164;2023-05-14T12:29:50;3.60;;;2.42;;
16775;SDS011;8505;49.456;8.164;2023-05-14T12:32:44;3.63;;;2.65;;
16775;SDS011;8505;49.456;8.164;2023-05-14T12:35:14;4.80;;;2.88;;
16775;SDS011;8505;49.456;8.164;2023-05-14T12:37:42;3.10;;;2.80;;
16775;SDS011;8505;49.456;8.164;2023-05-14T12:40:10;2.95;;;2.65;;
16775;SDS011;8505;49.456;8.164;2023-05-14T12:42:38;3.55;;;2.80;;
16775;SDS011;8505;49.456;8.164;2023-05-14T12:45:08;3.45;;;2.63;;
16775;SDS011;8505;49.456;8.164;2023-05-14T12:47:37;4.53;;;2.50;;
16775;SDS011;8505;49.456;8.164;2023-05-14T12:50:06;3.60;;;2.60;;
16775;SDS011;8505;49.456;8.164;2023-05-14T12:52:34;3.40;;;2.63;;
16775;SDS011;8505;49.456;8.164;2023-05-14T12:55:05;4.15;;;2.95;;
16775;SDS011;8505;49.456;8.164;2023-05-14T12:57:34;4.20;;;2.80;;
16775;SDS011;8505;49.456;8.164;2023-05-14T13:00:04;3.17;;;2.80;;
16775;SDS011;8505;49.456;8.164;2023-05-14T13:02:35;3.75;;;3.00;;
16775;SDS011;8505;49.456;8.164;2023-05-14T13:05:08;4.10;;;2.60;;
16775;SDS011;8505;49.456;8.164;2023-05-14T13:07:37;4.43;;;2.85;;
16775;SDS011;8505;49.456;8.164;2023-05-14T13:10:05;2.83;;;2.60;;
16775;SDS011;8505;49.456;8.164;2023-05-14T13:12:33;5.53;;;2.90;;
16775;SDS011;8505;49.456;8.164;2023-05-14T13:15:01;4.20;;;2.60;;
16775;SDS011;8505;49.456;8.164;2023-05-14T13:17:29;4.45;;;2.85;;
16775;SDS011;8505;49.456;8.164;2023-05-14T13:19:58;3.42;;;2.85;;
16775;SDS011;8505;49.456;8.164;2023-05-14T13:22:26;3.83;;;3.10;;
16775;SDS011;8505;49.456;8.164;2023-05-14T13:24:54;4.25;;;2.78;;
16775;SDS011;8505;49.456;8.164;2023-05-14T13:27:22;5.00;;;2.90;;
16775;SDS011;8505;49.456;8.164;2023-05-14T13:29:50;3.67;;;3.10;;
16775;SDS011;8505;49.456;8.164;2023-05-14T13:32:18;4.97;;;3.20;;
16775;SDS011;8505;49.456;8.164;2023-05-14T13:34:46;3.40;;;2.80;;
16775;SDS011;8505;49.456;8.164;2023-05-14T13:37:15;3.92;;;3.00;;
16775;SDS011;8505;49.456;8.164;2023-05-14T13:39:43;4.90;;;3.10;;
16775;SDS011;8505;49.456;8.164;2023-05-14T13:42:11;3.88;;;2.78;;
16775;SDS011;8505;49.456;8.164;2023-05-14T13:44:39;3.75;;;2.65;;
16775;SDS011;8505;49.456;8.164;2023-05-14T13:47:07;4.32;;;2.97;;
16775;SDS011;8505;49.456;8.164;2023-05-14T13:49:34;3.67;;;2.85;;
16775;SDS011;8505;49.456;8.164;2023-05-14T13:52:03;3.75;;;2.90;;
16775;SDS011;8505;49.456;8.164;2023-05-14T13:54:32;3.58;;;3.03;;
16775;SDS011;8505;49.456;8.164;2023-05-14T13:57:00;4.00;;;2.85;;
16775;SDS011;8505;49.456;8.164;2023-05-14T13:59:28;3.33;;;2.90;;
16775;SDS011;8505;49.456;8.164;2023-05-14T14:01:56;3.72;;;3.30;;
16775;SDS011;8505;49.456;8.164;2023-05-14T14:04:24;4.60;;;3.60;;
16775;SDS011;8505;49.456;8.164;2023-05-14T14:06:54;4.15;;;2.40;;
16775;SDS011;8505;49.456;8.164;2023-05-14T14:09:22;3.80;;;2.97;;
16775;SDS011;8505;49.456;8.164;2023-05-14T14:11:52;3.45;;;2.60;;
16775;SDS011;8505;49.456;8.164;2023-05-14T14:14:20;4.32;;;2.80;;
16775;SDS011;8505;49.456;8.164;2023-05-14T14:16:48;3.80;;;2.88;;
16775;SDS011;8505;49.456;8.164;2023-05-14T14:19:16;3.67;;;2.60;;
16775;SDS011;8505;49.456;8.164;2023-05-14T14:21:44;3.50;;;2.50;;
16775;SDS011;8505;49.456;8.164;2023-05-14T14:24:12;3.55;;;2.83;;
16775;SDS011;8505;49.456;8.164;2023-05-14T14:26:39;4.50;;;2.78;;
16775;SDS011;8505;49.456;8.164;2023-05-14T14:29:09;3.42;;;2.80;;
16775;SDS011;8505;49.456;8.164;2023-05-14T14:31:36;3.95;;;2.80;;
16775;SDS011;8505;49.456;8.164;2023-05-14T14:34:04;3.85;;;2.90;;
16775;SDS011;8505;49.456;8.164;2023-05-14T14:36:32;2.88;;;2.50;;
16775;SDS011;8505;49.456;8.164;2023-05-14T14:39:00;2.80;;;2.50;;
16775;SDS011;8505;49.456;8.164;2023-05-14T14:41:28;4.47;;;3.10;;
16775;SDS011;8505;49.456;8.164;2023-05-14T14:43:56;3.25;;;2.80;;
16775;SDS011;8505;49.456;8.164;2023-05-14T14:46:25;3.43;;;2.87;;
16775;SDS011;8505;49.456;8.164;2023-05-14T14:48:53;3.88;;;3.00;;
16775;SDS011;8505;49.456;8.164;2023-05-14T14:51:21;5.28;;;3.17;;
16775;SDS011;8505;49.456;8.164;2023-05-14T14:53:49;5.13;;;2.97;;
16775;SDS011;8505;49.456;8.164;2023-05-14T14:56:17;3.50;;;2.70;;
16775;SDS011;8505;49.456;8.164;2023-05-14T14:58:44;3.10;;;2.60;;
16775;SDS011;8505;49.456;8.164;2023-05-14T15:01:12;3.35;;;2.70;;
16775;SDS011;8505;49.456;8.164;2023-05-14T15:03:42;3.13;;;2.47;;
16775;SDS011;8505;49.456;8.164;2023-05-14T15:06:10;2.50;;;2.30;;